createdAt,value
2016-12-26T00:00:19.535Z,749
2016-12-26T00:01:19.622Z,751
2016-12-26T00:02:19.708Z,816
2016-12-26T00:03:19.827Z,804
2016-12-26T00:04:19.900Z,809
2016-12-26T00:05:20.028Z,803
2016-12-26T00:06:20.130Z,813
2016-12-26T00:07:20.203Z,769
2016-12-26T00:08:20.313Z,793
2016-12-26T00:09:20.424Z,747
2016-12-26T00:10:20.533Z,742
2016-12-26T00:11:20.626Z,742
2016-12-26T00:12:20.811Z,744
2016-12-26T00:13:20.907Z,742
2016-12-26T00:14:21.053Z,742
2016-12-26T00:15:21.134Z,747
2016-12-26T00:16:21.257Z,744
2016-12-26T00:17:21.434Z,798
2016-12-26T00:18:21.541Z,739
2016-12-26T00:19:21.676Z,738
2016-12-26T00:20:21.765Z,740
2016-12-26T00:21:21.865Z,744
2016-12-26T00:22:21.955Z,740
2016-12-26T00:23:22.063Z,740
2016-12-26T00:24:22.228Z,742
2016-12-26T00:25:22.326Z,814
2016-12-26T00:26:22.432Z,742
2016-12-26T00:27:22.586Z,740
2016-12-26T00:28:22.720Z,743
2016-12-26T00:29:22.822Z,742
2016-12-26T00:30:22.986Z,744
2016-12-26T00:31:23.100Z,741
2016-12-26T00:32:23.264Z,751
2016-12-26T00:33:23.382Z,753
2016-12-26T00:34:23.493Z,748
2016-12-26T00:35:23.580Z,753
2016-12-26T00:36:23.661Z,749
2016-12-26T00:37:23.784Z,751
2016-12-26T00:38:23.887Z,752
2016-12-26T00:39:23.976Z,753
2016-12-26T00:40:24.060Z,751
2016-12-26T00:41:24.146Z,752
2016-12-26T00:42:24.226Z,752
2016-12-26T00:43:24.335Z,744
2016-12-26T00:44:24.438Z,744
2016-12-26T00:45:24.555Z,737
2016-12-26T00:46:24.657Z,743
2016-12-26T00:47:24.748Z,803
2016-12-26T00:48:24.865Z,802
2016-12-26T00:49:24.993Z,805
2016-12-26T00:50:25.153Z,817
2016-12-26T00:51:25.345Z,811
2016-12-26T00:52:25.465Z,810
2016-12-26T00:53:25.605Z,824
2016-12-26T00:54:25.735Z,830
2016-12-26T00:55:25.853Z,827
2016-12-26T00:56:25.990Z,816
2016-12-26T00:57:26.062Z,823
2016-12-26T00:58:26.171Z,802
2016-12-26T00:59:26.328Z,807
2016-12-26T01:00:26.407Z,793
2016-12-26T01:01:26.571Z,775
2016-12-26T01:02:26.673Z,782
2016-12-26T01:03:26.834Z,760
2016-12-26T01:04:26.921Z,723
2016-12-26T01:05:27.030Z,722
2016-12-26T01:06:27.155Z,725
2016-12-26T01:07:27.246Z,725
2016-12-26T01:08:27.359Z,724
2016-12-26T01:09:27.466Z,725
2016-12-26T01:10:27.562Z,727
2016-12-26T01:11:27.704Z,725
2016-12-26T01:12:27.783Z,725
2016-12-26T01:13:27.874Z,725
2016-12-26T01:14:27.991Z,726
2016-12-26T01:15:28.059Z,725
2016-12-26T01:16:28.131Z,727
2016-12-26T01:17:28.236Z,727
2016-12-26T01:18:28.365Z,729
2016-12-26T01:19:28.472Z,727
2016-12-26T01:20:28.565Z,729
2016-12-26T01:21:28.687Z,727
2016-12-26T01:22:28.763Z,729
2016-12-26T01:23:28.854Z,725
2016-12-26T01:24:28.938Z,727
2016-12-26T01:25:29.140Z,725
2016-12-26T01:26:29.265Z,726
2016-12-26T01:27:29.358Z,721
2016-12-26T01:28:29.460Z,723
2016-12-26T01:29:29.558Z,726
2016-12-26T01:30:29.666Z,724
2016-12-26T01:31:29.752Z,720
2016-12-26T01:32:29.849Z,719
2016-12-26T01:33:29.974Z,722
2016-12-26T01:34:30.086Z,721
2016-12-26T01:35:30.179Z,721
2016-12-26T01:36:30.274Z,721
2016-12-26T01:37:30.350Z,777
2016-12-26T01:38:30.459Z,723
2016-12-26T01:39:30.580Z,722
2016-12-26T01:40:30.701Z,719
2016-12-26T01:41:30.772Z,721
2016-12-26T01:42:30.867Z,703
2016-12-26T01:43:30.969Z,709
2016-12-26T01:44:31.125Z,712
2016-12-26T01:45:31.271Z,722
2016-12-26T01:46:31.376Z,717
2016-12-26T01:47:31.450Z,719
2016-12-26T01:48:31.590Z,719
2016-12-26T01:49:31.753Z,722
2016-12-26T01:50:31.857Z,721
2016-12-26T01:51:31.974Z,722
2016-12-26T01:52:32.039Z,721
2016-12-26T01:53:32.138Z,719
2016-12-26T01:54:32.235Z,718
2016-12-26T01:55:32.348Z,720
2016-12-26T01:56:32.454Z,719
2016-12-26T01:57:32.529Z,719
2016-12-26T01:58:32.632Z,718
2016-12-26T01:59:32.734Z,718
2016-12-26T02:00:32.797Z,719
2016-12-26T02:01:32.907Z,722
2016-12-26T02:02:33.111Z,722
2016-12-26T02:03:33.249Z,722
2016-12-26T02:04:33.361Z,722
2016-12-26T02:05:33.599Z,724
2016-12-26T02:06:33.778Z,782
2016-12-26T02:07:33.859Z,780
2016-12-26T02:08:33.983Z,724
2016-12-26T02:09:34.103Z,717
2016-12-26T02:10:34.207Z,715
2016-12-26T02:11:34.333Z,717
2016-12-26T02:12:34.432Z,713
2016-12-26T02:13:34.503Z,713
2016-12-26T02:14:34.638Z,715
2016-12-26T02:15:34.738Z,725
2016-12-26T02:16:34.964Z,787
2016-12-26T02:17:35.029Z,785
2016-12-26T02:18:35.113Z,789
2016-12-26T02:19:35.200Z,790
2016-12-26T02:20:35.288Z,795
2016-12-26T02:21:35.392Z,795
2016-12-26T02:22:35.462Z,797
2016-12-26T02:23:35.571Z,801
2016-12-26T02:24:35.705Z,803
2016-12-26T02:25:35.847Z,802
2016-12-26T02:26:35.954Z,801
2016-12-26T02:27:36.068Z,799
2016-12-26T02:28:36.142Z,791
2016-12-26T02:29:36.311Z,722
2016-12-26T02:30:36.398Z,721
2016-12-26T02:31:36.510Z,725
2016-12-26T02:32:36.614Z,723
2016-12-26T02:33:36.737Z,727
2016-12-26T02:34:36.834Z,725
2016-12-26T02:35:36.992Z,727
2016-12-26T02:36:37.079Z,726
2016-12-26T02:37:38.113Z,729
2016-12-26T02:38:38.261Z,732
2016-12-26T02:39:38.352Z,728
2016-12-26T02:40:38.437Z,728
2016-12-26T02:41:38.555Z,731
2016-12-26T02:42:38.632Z,733
2016-12-26T02:43:38.742Z,732
2016-12-26T02:44:38.909Z,734
2016-12-26T02:45:38.997Z,738
2016-12-26T02:46:39.098Z,738
2016-12-26T02:47:39.174Z,739
2016-12-26T02:48:39.313Z,832
2016-12-26T02:49:39.470Z,837
2016-12-26T02:50:39.591Z,837
2016-12-26T02:51:39.687Z,839
2016-12-26T02:52:39.942Z,838
2016-12-26T02:53:40.059Z,838
2016-12-26T02:54:40.168Z,836
2016-12-26T02:55:40.244Z,832
2016-12-26T02:56:40.341Z,834
2016-12-26T02:57:40.468Z,829
2016-12-26T02:58:40.546Z,828
2016-12-26T02:59:40.626Z,830
2016-12-26T03:00:40.740Z,826
2016-12-26T03:01:40.836Z,819
2016-12-26T03:02:40.929Z,740
2016-12-26T03:03:41.080Z,737
2016-12-26T03:04:41.185Z,732
2016-12-26T03:05:41.255Z,732
2016-12-26T03:06:41.364Z,736
2016-12-26T03:07:41.441Z,807
2016-12-26T03:08:42.064Z,807
2016-12-26T03:09:41.627Z,736
2016-12-26T03:10:41.702Z,738
2016-12-26T03:11:41.852Z,737
2016-12-26T03:12:41.942Z,741
2016-12-26T03:13:42.057Z,743
2016-12-26T03:14:42.147Z,823
2016-12-26T03:15:42.238Z,805
2016-12-26T03:16:42.368Z,744
2016-12-26T03:17:42.480Z,744
2016-12-26T03:18:42.593Z,785
2016-12-26T03:19:42.712Z,794
2016-12-26T03:20:42.786Z,801
2016-12-26T03:21:42.862Z,755
2016-12-26T03:22:42.996Z,753
2016-12-26T03:23:43.099Z,752
2016-12-26T03:24:43.179Z,755
2016-12-26T03:25:43.364Z,752
2016-12-26T03:26:43.445Z,755
2016-12-26T03:27:43.568Z,750
2016-12-26T03:28:43.829Z,749
2016-12-26T03:29:43.949Z,751
2016-12-26T03:30:44.034Z,761
2016-12-26T03:31:44.133Z,758
2016-12-26T03:32:44.230Z,819
2016-12-26T03:33:44.304Z,801
2016-12-26T03:34:44.425Z,753
2016-12-26T03:35:44.548Z,816
2016-12-26T03:36:44.722Z,813
2016-12-26T03:37:44.796Z,759
2016-12-26T03:38:44.904Z,847
2016-12-26T03:39:45.008Z,826
2016-12-26T03:40:45.116Z,814
2016-12-26T03:41:45.230Z,817
2016-12-26T03:42:45.378Z,810
2016-12-26T03:43:45.547Z,813
2016-12-26T03:44:45.634Z,749
2016-12-26T03:45:45.724Z,827
2016-12-26T03:46:45.882Z,812
2016-12-26T03:47:45.964Z,807
2016-12-26T03:48:46.138Z,750
2016-12-26T03:49:46.214Z,811
2016-12-26T03:50:46.345Z,825
2016-12-26T03:51:46.451Z,749
2016-12-26T03:52:46.597Z,751
2016-12-26T03:53:46.696Z,752
2016-12-26T03:54:46.828Z,752
2016-12-26T03:55:46.901Z,753
2016-12-26T03:56:46.997Z,749
2016-12-26T03:57:47.125Z,751
2016-12-26T03:58:47.249Z,757
2016-12-26T03:59:47.400Z,762
2016-12-26T04:00:47.513Z,764
2016-12-26T04:01:47.616Z,764
2016-12-26T04:02:47.739Z,760
2016-12-26T04:03:47.858Z,763
2016-12-26T04:04:47.960Z,761
2016-12-26T04:05:48.075Z,761
2016-12-26T04:06:48.168Z,810
2016-12-26T04:07:48.255Z,763
2016-12-26T04:08:48.367Z,818
2016-12-26T04:09:48.481Z,762
2016-12-26T04:10:48.581Z,760
2016-12-26T04:11:48.718Z,768
2016-12-26T04:12:48.854Z,768
2016-12-26T04:13:48.934Z,766
2016-12-26T04:14:49.022Z,764
2016-12-26T04:15:49.096Z,764
2016-12-26T04:16:49.269Z,760
2016-12-26T04:17:49.409Z,760
2016-12-26T04:18:49.533Z,763
2016-12-26T04:19:49.647Z,758
2016-12-26T04:20:49.756Z,758
2016-12-26T04:21:49.876Z,758
2016-12-26T04:22:49.979Z,755
2016-12-26T04:23:50.082Z,759
2016-12-26T04:24:50.167Z,758
2016-12-26T04:25:50.294Z,759
2016-12-26T04:26:50.426Z,759
2016-12-26T04:27:50.552Z,760
2016-12-26T04:28:50.650Z,820
2016-12-26T04:29:50.767Z,761
2016-12-26T04:30:50.900Z,760
2016-12-26T04:31:50.992Z,760
2016-12-26T04:32:51.134Z,759
2016-12-26T04:33:51.230Z,761
2016-12-26T04:34:51.305Z,760
2016-12-26T04:35:51.378Z,764
2016-12-26T04:36:51.541Z,762
2016-12-26T04:37:51.669Z,762
2016-12-26T04:38:51.775Z,762
2016-12-26T04:39:51.878Z,757
2016-12-26T04:40:51.966Z,764
2016-12-26T04:41:52.073Z,764
2016-12-26T04:42:52.204Z,764
2016-12-26T04:43:52.294Z,764
2016-12-26T04:44:52.392Z,763
2016-12-26T04:45:52.488Z,764
2016-12-26T04:46:52.601Z,765
2016-12-26T04:47:52.723Z,766
2016-12-26T04:48:52.833Z,766
2016-12-26T04:49:52.927Z,767
2016-12-26T04:50:53.055Z,767
2016-12-26T04:51:53.256Z,782
2016-12-26T04:52:53.352Z,785
2016-12-26T04:53:53.429Z,786
2016-12-26T04:54:53.524Z,785
2016-12-26T04:55:53.635Z,787
2016-12-26T04:56:53.739Z,783
2016-12-26T04:57:53.837Z,787
2016-12-26T04:58:53.933Z,787
2016-12-26T04:59:54.050Z,795
2016-12-26T05:00:54.155Z,796
2016-12-26T05:01:54.257Z,796
2016-12-26T05:02:54.363Z,793
2016-12-26T05:03:54.490Z,793
2016-12-26T05:04:54.571Z,792
2016-12-26T05:05:54.721Z,793
2016-12-26T05:06:54.818Z,789
2016-12-26T05:07:54.936Z,790
2016-12-26T05:08:55.034Z,799
2016-12-26T05:09:55.114Z,796
2016-12-26T05:10:55.250Z,798
2016-12-26T05:11:55.332Z,790
2016-12-26T05:12:55.442Z,790
2016-12-26T05:13:55.568Z,789
2016-12-26T05:14:55.677Z,787
2016-12-26T05:15:55.773Z,785
2016-12-26T05:16:55.862Z,787
2016-12-26T05:17:55.977Z,789
2016-12-26T05:18:56.094Z,787
2016-12-26T05:19:56.207Z,777
2016-12-26T05:20:56.273Z,774
2016-12-26T05:21:56.383Z,766
2016-12-26T05:22:56.498Z,787
2016-12-26T05:23:56.594Z,789
2016-12-26T05:24:56.743Z,774
2016-12-26T05:25:56.841Z,785
2016-12-26T05:26:57.603Z,775
2016-12-26T05:27:57.015Z,779
2016-12-26T05:28:57.139Z,784
2016-12-26T05:29:57.244Z,785
2016-12-26T05:30:57.344Z,784
2016-12-26T05:31:57.461Z,784
2016-12-26T05:32:57.561Z,785
2016-12-26T05:33:57.706Z,782
2016-12-26T05:34:57.811Z,783
2016-12-26T05:35:57.976Z,759
2016-12-26T05:36:58.101Z,758
2016-12-26T05:37:58.228Z,763
2016-12-26T05:38:58.335Z,762
2016-12-26T05:39:58.437Z,763
2016-12-26T05:40:58.542Z,761
2016-12-26T05:41:58.667Z,762
2016-12-26T05:42:58.761Z,761
2016-12-26T05:43:58.847Z,761
2016-12-26T05:44:58.944Z,760
2016-12-26T05:45:59.071Z,758
2016-12-26T05:46:59.153Z,775
2016-12-26T05:47:59.237Z,758
2016-12-26T05:48:59.333Z,780
2016-12-26T05:49:59.630Z,787
2016-12-26T05:50:59.735Z,785
2016-12-26T05:51:59.803Z,784
2016-12-26T05:52:59.937Z,762
2016-12-26T05:54:00.022Z,762
2016-12-26T05:55:00.119Z,761
2016-12-26T05:56:00.223Z,774
2016-12-26T05:57:00.400Z,772
2016-12-26T05:58:00.535Z,772
2016-12-26T05:59:00.628Z,755
2016-12-26T06:00:00.732Z,757
2016-12-26T06:01:00.824Z,833
2016-12-26T06:02:00.894Z,756
2016-12-26T06:03:01.036Z,755
2016-12-26T06:04:01.147Z,754
2016-12-26T06:05:01.278Z,737
2016-12-26T06:06:01.385Z,737
2016-12-26T06:07:01.462Z,739
2016-12-26T06:08:01.526Z,741
2016-12-26T06:09:01.649Z,745
2016-12-26T06:10:01.766Z,745
2016-12-26T06:11:01.849Z,748
2016-12-26T06:12:01.939Z,748
2016-12-26T06:13:02.045Z,745
2016-12-26T06:14:03.121Z,757
2016-12-26T06:15:02.228Z,763
2016-12-26T06:16:02.456Z,763
2016-12-26T06:17:02.591Z,764
2016-12-26T06:18:02.748Z,765
2016-12-26T06:19:02.859Z,765
2016-12-26T06:20:02.942Z,765
2016-12-26T06:21:03.041Z,765
2016-12-26T06:22:03.643Z,770
2016-12-26T06:23:03.804Z,770
2016-12-26T06:24:03.901Z,768
2016-12-26T06:25:04.625Z,769
2016-12-26T06:26:04.071Z,768
2016-12-26T06:27:04.181Z,767
2016-12-26T06:28:04.297Z,767
2016-12-26T06:29:04.387Z,769
2016-12-26T06:30:04.500Z,769
2016-12-26T06:31:04.593Z,770
2016-12-26T06:32:04.717Z,764
2016-12-26T06:33:04.855Z,764
2016-12-26T06:34:04.957Z,768
2016-12-26T06:35:05.030Z,769
2016-12-26T06:36:05.139Z,768
2016-12-26T06:37:05.231Z,768
2016-12-26T06:38:06.125Z,770
2016-12-26T06:39:05.493Z,772
2016-12-26T06:40:05.602Z,770
2016-12-26T06:41:05.691Z,769
2016-12-26T06:42:05.775Z,771
2016-12-26T06:43:06.055Z,760
2016-12-26T06:44:06.166Z,771
2016-12-26T06:45:06.248Z,772
2016-12-26T06:46:06.377Z,767
2016-12-26T06:47:06.545Z,765
2016-12-26T06:48:06.700Z,770
2016-12-26T06:49:06.817Z,769
2016-12-26T06:50:06.940Z,766
2016-12-26T06:51:07.020Z,755
2016-12-26T06:52:07.155Z,760
2016-12-26T06:53:07.301Z,761
2016-12-26T06:54:07.374Z,764
2016-12-26T06:55:08.147Z,768
2016-12-26T06:56:07.566Z,772
2016-12-26T06:57:08.628Z,773
2016-12-26T06:58:07.736Z,773
2016-12-26T06:59:07.924Z,775
2016-12-26T07:00:08.044Z,777
2016-12-26T07:01:08.120Z,777
2016-12-26T07:02:08.260Z,777
2016-12-26T07:03:09.132Z,777
2016-12-26T07:04:09.135Z,774
2016-12-26T07:05:08.585Z,775
2016-12-26T07:06:08.706Z,774
2016-12-26T07:07:08.835Z,773
2016-12-26T07:08:08.969Z,775
2016-12-26T07:09:09.065Z,775
2016-12-26T07:10:09.192Z,771
2016-12-26T07:11:09.337Z,774
2016-12-26T07:12:09.514Z,774
2016-12-26T07:13:09.631Z,774
2016-12-26T07:14:09.744Z,772
2016-12-26T07:15:09.990Z,775
2016-12-26T07:16:10.152Z,779
2016-12-26T07:17:10.240Z,777
2016-12-26T07:18:10.356Z,776
2016-12-26T07:19:10.484Z,776
2016-12-26T07:20:10.565Z,777
2016-12-26T07:21:10.676Z,777
2016-12-26T07:22:10.838Z,777
2016-12-26T07:23:11.013Z,776
2016-12-26T07:24:11.147Z,778
2016-12-26T07:25:11.385Z,780
2016-12-26T07:26:11.502Z,777
2016-12-26T07:27:11.612Z,777
2016-12-26T07:28:11.703Z,771
2016-12-26T07:29:11.814Z,777
2016-12-26T07:30:11.934Z,772
2016-12-26T07:31:12.071Z,774
2016-12-26T07:32:12.154Z,774
2016-12-26T07:33:12.290Z,773
2016-12-26T07:34:12.393Z,770
2016-12-26T07:35:12.474Z,771
2016-12-26T07:36:12.568Z,772
2016-12-26T07:37:12.699Z,772
2016-12-26T07:38:12.846Z,770
2016-12-26T07:39:12.963Z,773
2016-12-26T07:40:13.032Z,829
2016-12-26T07:41:13.122Z,824
2016-12-26T07:42:13.377Z,765
2016-12-26T07:43:13.500Z,767
2016-12-26T07:44:13.601Z,764
2016-12-26T07:45:13.686Z,766
2016-12-26T07:46:13.891Z,764
2016-12-26T07:47:14.640Z,759
2016-12-26T07:48:14.136Z,766
2016-12-26T07:49:14.226Z,768
2016-12-26T07:50:14.312Z,768
2016-12-26T07:51:14.416Z,769
2016-12-26T07:52:15.150Z,768
2016-12-26T07:53:14.596Z,767
2016-12-26T07:54:14.713Z,766
2016-12-26T07:55:14.873Z,762
2016-12-26T07:56:14.973Z,760
2016-12-26T07:57:15.052Z,760
2016-12-26T07:58:15.137Z,763
2016-12-26T07:59:15.299Z,762
2016-12-26T08:00:15.443Z,765
2016-12-26T08:01:15.580Z,758
2016-12-26T08:02:15.697Z,753
2016-12-26T08:03:15.817Z,755
2016-12-26T08:04:15.955Z,744
2016-12-26T08:05:16.091Z,746
2016-12-26T08:06:16.167Z,751
2016-12-26T08:07:16.259Z,752
2016-12-26T08:08:16.319Z,751
2016-12-26T08:09:16.480Z,838
2016-12-26T08:10:16.581Z,839
2016-12-26T08:11:16.664Z,743
2016-12-26T08:12:16.784Z,743
2016-12-26T08:13:16.918Z,742
2016-12-26T08:14:17.024Z,741
2016-12-26T08:15:17.097Z,742
2016-12-26T08:16:17.173Z,743
2016-12-26T08:17:17.317Z,744
2016-12-26T08:18:17.447Z,745
2016-12-26T08:19:17.557Z,747
2016-12-26T08:20:17.747Z,747
2016-12-26T08:21:17.836Z,746
2016-12-26T08:22:17.916Z,746
2016-12-26T08:23:18.032Z,746
2016-12-26T08:24:18.150Z,749
2016-12-26T08:25:18.264Z,746
2016-12-26T08:26:18.367Z,745
2016-12-26T08:27:18.443Z,742
2016-12-26T08:28:18.543Z,741
2016-12-26T08:29:18.706Z,742
2016-12-26T08:30:18.834Z,742
2016-12-26T08:31:18.915Z,742
2016-12-26T08:32:19.046Z,736
2016-12-26T08:33:19.135Z,737
2016-12-26T08:34:19.230Z,737
2016-12-26T08:35:19.344Z,736
2016-12-26T08:36:19.444Z,735
2016-12-26T08:37:19.559Z,735
2016-12-26T08:38:19.671Z,739
2016-12-26T08:39:19.759Z,742
2016-12-26T08:40:19.888Z,702
2016-12-26T08:41:20.001Z,704
2016-12-26T08:42:20.120Z,702
2016-12-26T08:43:20.201Z,685
2016-12-26T08:44:20.298Z,694
2016-12-26T08:45:20.428Z,726
2016-12-26T08:46:20.555Z,748
2016-12-26T08:47:20.639Z,747
2016-12-26T08:48:20.735Z,622
2016-12-26T08:49:20.861Z,611
2016-12-26T08:50:20.948Z,599
2016-12-26T08:51:21.030Z,507
2016-12-26T08:52:21.143Z,500
2016-12-26T08:53:21.249Z,496
2016-12-26T08:54:21.334Z,483
2016-12-26T08:55:21.426Z,484
2016-12-26T08:56:21.517Z,496
2016-12-26T08:57:21.641Z,500
2016-12-26T08:58:21.757Z,526
2016-12-26T08:59:21.881Z,554
2016-12-26T09:00:21.968Z,542
2016-12-26T09:01:22.189Z,531
2016-12-26T09:02:22.279Z,528
2016-12-26T09:03:22.404Z,542
2016-12-26T09:04:22.519Z,557
2016-12-26T09:05:22.589Z,563
2016-12-26T09:06:22.718Z,561
2016-12-26T09:07:22.772Z,561
2016-12-26T09:08:22.886Z,544
2016-12-26T09:09:23.007Z,546
2016-12-26T09:10:23.168Z,522
2016-12-26T09:11:23.278Z,490
2016-12-26T09:12:23.380Z,484
2016-12-26T09:13:23.466Z,482
2016-12-26T09:14:23.605Z,473
2016-12-26T09:15:23.710Z,491
2016-12-26T09:16:23.825Z,469
2016-12-26T09:17:23.985Z,472
2016-12-26T09:18:24.130Z,475
2016-12-26T09:19:24.243Z,472
2016-12-26T09:20:24.320Z,482
2016-12-26T09:21:24.510Z,471
2016-12-26T09:22:24.583Z,478
2016-12-26T09:23:24.690Z,465
2016-12-26T09:24:24.798Z,486
2016-12-26T09:25:24.916Z,487
2016-12-26T09:26:25.084Z,479
2016-12-26T09:27:25.206Z,500
2016-12-26T09:28:25.340Z,485
2016-12-26T09:29:25.425Z,505
2016-12-26T09:30:25.662Z,495
2016-12-26T09:31:25.777Z,497
2016-12-26T09:32:25.862Z,483
2016-12-26T09:33:25.990Z,480
2016-12-26T09:34:26.088Z,480
2016-12-26T09:35:26.147Z,502
2016-12-26T09:36:26.285Z,507
2016-12-26T09:37:26.431Z,493
2016-12-26T09:38:26.518Z,493
2016-12-26T09:39:26.671Z,499
2016-12-26T09:40:26.841Z,480
2016-12-26T09:41:26.957Z,505
2016-12-26T09:42:27.069Z,508
2016-12-26T09:43:27.219Z,499
2016-12-26T09:44:27.412Z,510
2016-12-26T09:45:27.519Z,484
2016-12-26T09:46:27.620Z,482
2016-12-26T09:47:27.717Z,487
2016-12-26T09:48:27.864Z,488
2016-12-26T09:49:28.050Z,505
2016-12-26T09:50:28.137Z,502
2016-12-26T09:51:28.212Z,685
2016-12-26T09:52:28.319Z,657
2016-12-26T09:53:28.439Z,665
2016-12-26T09:54:28.593Z,603
2016-12-26T09:55:28.676Z,617
2016-12-26T09:56:28.802Z,618
2016-12-26T09:57:28.939Z,626
2016-12-26T09:58:29.038Z,623
2016-12-26T09:59:29.204Z,624
2016-12-26T10:00:29.315Z,629
2016-12-26T10:01:29.404Z,624
2016-12-26T10:02:29.473Z,617
2016-12-26T10:03:29.660Z,601
2016-12-26T10:04:29.770Z,600
2016-12-26T10:05:29.854Z,601
2016-12-26T10:06:29.980Z,591
2016-12-26T10:07:30.111Z,569
2016-12-26T10:08:30.203Z,575
2016-12-26T10:09:30.299Z,587
2016-12-26T10:10:30.415Z,600
2016-12-26T10:11:30.540Z,599
2016-12-26T10:12:30.691Z,593
2016-12-26T10:13:30.899Z,599
2016-12-26T10:14:31.041Z,599
2016-12-26T10:15:31.183Z,606
2016-12-26T10:16:31.288Z,602
2016-12-26T10:17:31.364Z,607
2016-12-26T10:18:31.508Z,606
2016-12-26T10:19:31.620Z,608
2016-12-26T10:20:31.751Z,608
2016-12-26T10:21:31.888Z,605
2016-12-26T10:22:31.976Z,613
2016-12-26T10:23:32.120Z,609
2016-12-26T10:24:32.268Z,606
2016-12-26T10:25:32.430Z,600
2016-12-26T10:26:32.560Z,610
2016-12-26T10:27:32.676Z,606
2016-12-26T10:28:32.810Z,598
2016-12-26T10:29:32.921Z,598
2016-12-26T10:30:33.017Z,592
2016-12-26T10:31:33.170Z,587
2016-12-26T10:32:33.255Z,590
2016-12-26T10:33:33.343Z,589
2016-12-26T10:34:33.550Z,587
2016-12-26T10:35:33.712Z,584
2016-12-26T10:36:33.805Z,586
2016-12-26T10:37:33.916Z,582
2016-12-26T10:38:34.040Z,579
2016-12-26T10:39:34.145Z,584
2016-12-26T10:40:34.312Z,578
2016-12-26T10:41:34.442Z,575
2016-12-26T10:42:34.518Z,580
2016-12-26T10:43:34.628Z,572
2016-12-26T10:44:34.724Z,569
2016-12-26T10:45:34.847Z,560
2016-12-26T10:46:35.002Z,529
2016-12-26T10:47:35.909Z,515
2016-12-26T10:48:36.005Z,495
2016-12-26T10:49:36.094Z,505
2016-12-26T10:50:36.203Z,511
2016-12-26T10:51:36.310Z,505
2016-12-26T10:52:36.380Z,502
2016-12-26T10:53:36.493Z,498
2016-12-26T10:54:36.670Z,498
2016-12-26T10:55:36.752Z,495
2016-12-26T10:56:36.891Z,485
2016-12-26T10:57:36.980Z,496
2016-12-26T10:58:37.116Z,491
2016-12-26T10:59:37.239Z,490
2016-12-26T11:00:37.310Z,489
2016-12-26T11:01:37.410Z,465
2016-12-26T11:02:37.486Z,451
2016-12-26T11:03:37.576Z,448
2016-12-26T11:04:37.764Z,443
2016-12-26T11:05:37.851Z,439
2016-12-26T11:06:37.985Z,440
2016-12-26T11:07:38.062Z,426
2016-12-26T11:08:38.144Z,421
2016-12-26T11:09:38.276Z,414
2016-12-26T11:10:38.366Z,420
2016-12-26T11:11:38.455Z,432
2016-12-26T11:12:38.541Z,428
2016-12-26T11:13:38.670Z,416
2016-12-26T11:14:38.774Z,412
2016-12-26T11:15:38.880Z,404
2016-12-26T11:16:38.954Z,380
2016-12-26T11:17:39.032Z,387
2016-12-26T11:18:39.183Z,380
2016-12-26T11:19:39.279Z,351
2016-12-26T11:20:39.407Z,305
2016-12-26T11:21:39.496Z,303
2016-12-26T11:22:39.592Z,302
2016-12-26T11:23:39.697Z,301
2016-12-26T11:24:39.796Z,300
2016-12-26T11:25:39.876Z,300
2016-12-26T11:26:40.011Z,301
2016-12-26T11:27:40.114Z,300
2016-12-26T11:28:40.232Z,300
2016-12-26T11:29:40.340Z,300
2016-12-26T11:30:40.485Z,299
2016-12-26T11:31:40.565Z,298
2016-12-26T11:32:40.662Z,298
2016-12-26T11:33:40.780Z,298
2016-12-26T11:34:40.851Z,298
2016-12-26T11:35:40.952Z,297
2016-12-26T11:36:41.103Z,297
2016-12-26T11:37:41.200Z,296
2016-12-26T11:38:41.299Z,297
2016-12-26T11:39:41.413Z,297
2016-12-26T11:40:41.590Z,296
2016-12-26T11:41:41.723Z,296
2016-12-26T11:42:41.833Z,296
2016-12-26T11:43:41.962Z,297
2016-12-26T11:44:42.059Z,297
2016-12-26T11:45:42.146Z,296
2016-12-26T11:46:42.265Z,295
2016-12-26T11:47:42.355Z,295
2016-12-26T11:48:42.479Z,296
2016-12-26T11:49:42.578Z,296
2016-12-26T11:50:42.673Z,295
2016-12-26T11:51:42.803Z,293
2016-12-26T11:52:42.869Z,293
2016-12-26T11:53:43.001Z,292
2016-12-26T11:54:43.115Z,293
2016-12-26T11:55:43.292Z,293
2016-12-26T11:56:43.434Z,292
2016-12-26T11:57:43.556Z,292
2016-12-26T11:58:43.658Z,292
2016-12-26T11:59:43.782Z,292
2016-12-26T12:00:43.894Z,291
2016-12-26T12:01:44.018Z,291
2016-12-26T12:02:44.077Z,291
2016-12-26T12:03:44.202Z,291
2016-12-26T12:04:44.307Z,291
2016-12-26T12:05:44.435Z,291
2016-12-26T12:06:44.512Z,292
2016-12-26T12:07:44.614Z,292
2016-12-26T12:08:44.773Z,292
2016-12-26T12:09:44.867Z,292
2016-12-26T12:10:44.989Z,292
2016-12-26T12:11:45.078Z,292
2016-12-26T12:12:45.210Z,291
2016-12-26T12:13:45.363Z,291
2016-12-26T12:14:45.450Z,292
2016-12-26T12:15:45.674Z,291
2016-12-26T12:16:45.842Z,292
2016-12-26T12:17:45.947Z,292
2016-12-26T12:18:46.157Z,291
2016-12-26T12:19:46.235Z,292
2016-12-26T12:20:46.355Z,291
2016-12-26T12:21:46.474Z,292
2016-12-26T12:22:46.543Z,292
2016-12-26T12:23:46.658Z,291
2016-12-26T12:24:46.764Z,291
2016-12-26T12:25:46.829Z,292
2016-12-26T12:26:46.915Z,292
2016-12-26T12:27:47.028Z,290
2016-12-26T12:28:47.152Z,291
2016-12-26T12:29:47.277Z,291
2016-12-26T12:30:47.382Z,291
2016-12-26T12:31:47.487Z,291
2016-12-26T12:32:47.617Z,292
2016-12-26T12:33:47.783Z,290
2016-12-26T12:34:47.878Z,291
2016-12-26T12:35:48.021Z,291
2016-12-26T12:36:48.127Z,292
2016-12-26T12:37:48.253Z,292
2016-12-26T12:38:48.362Z,293
2016-12-26T12:39:48.449Z,292
2016-12-26T12:40:48.566Z,291
2016-12-26T12:41:48.706Z,292
2016-12-26T12:42:48.880Z,291
2016-12-26T12:43:48.956Z,291
2016-12-26T12:44:49.071Z,291
2016-12-26T12:45:49.153Z,290
2016-12-26T12:46:49.275Z,290
2016-12-26T12:47:49.396Z,290
2016-12-26T12:48:49.508Z,290
2016-12-26T12:49:49.689Z,290
2016-12-26T12:50:49.823Z,290
2016-12-26T12:51:49.930Z,290
2016-12-26T12:52:50.053Z,290
2016-12-26T12:53:50.313Z,290
2016-12-26T12:54:50.457Z,290
2016-12-26T12:55:50.517Z,290
2016-12-26T12:56:50.594Z,290
2016-12-26T12:57:50.737Z,289
2016-12-26T12:58:50.859Z,290
2016-12-26T12:59:51.023Z,289
2016-12-26T13:00:51.148Z,290
2016-12-26T13:01:51.218Z,290
2016-12-26T13:02:51.387Z,290
2016-12-26T13:03:51.488Z,290
2016-12-26T13:04:51.660Z,290
2016-12-26T13:05:51.817Z,290
2016-12-26T13:06:51.968Z,290
2016-12-26T13:07:52.147Z,290
2016-12-26T13:08:52.221Z,290
2016-12-26T13:09:52.304Z,290
2016-12-26T13:10:52.399Z,290
2016-12-26T13:11:52.508Z,290
2016-12-26T13:12:52.613Z,289
2016-12-26T13:13:52.712Z,290
2016-12-26T13:14:52.814Z,290
2016-12-26T13:15:52.945Z,289
2016-12-26T13:16:53.053Z,290
2016-12-26T13:17:53.188Z,290
2016-12-26T13:18:53.303Z,290
2016-12-26T13:19:53.446Z,290
2016-12-26T13:20:53.581Z,290
2016-12-26T13:21:53.716Z,289
2016-12-26T13:22:53.816Z,289
2016-12-26T13:23:53.971Z,289
2016-12-26T13:24:54.123Z,289
2016-12-26T13:25:54.200Z,289
2016-12-26T13:26:54.310Z,290
2016-12-26T13:27:54.412Z,289
2016-12-26T13:28:54.554Z,289
2016-12-26T13:29:54.687Z,289
2016-12-26T13:30:54.817Z,289
2016-12-26T13:31:54.954Z,289
2016-12-26T13:32:55.122Z,289
2016-12-26T13:33:55.222Z,289
2016-12-26T13:34:55.362Z,289
2016-12-26T13:35:55.453Z,289
2016-12-26T13:36:55.539Z,289
2016-12-26T13:37:55.636Z,289
2016-12-26T13:38:55.747Z,289
2016-12-26T13:39:55.902Z,289
2016-12-26T13:40:56.010Z,289
2016-12-26T13:41:56.136Z,289
2016-12-26T13:42:56.284Z,289
2016-12-26T13:43:56.369Z,289
2016-12-26T13:44:56.480Z,289
2016-12-26T13:45:56.626Z,287
2016-12-26T13:46:56.735Z,287
2016-12-26T13:47:56.868Z,287